Time;durP1;ratioP1;P1;durP2;ratioP2;P2;SDS_P1;SDS_P2;PMS_P1;PMS_P2;Temp;Humidity;BMP_temperature;BMP_pressure;BME280_temperature;BME280_humidity;BME280_pressure;Samples;Min_cycle;Max_cycle;Signal;HPM_P1;HPM_P2
2021/11/02 00:02:13;;;;;;;20.50;10.45;;;;;;;7.58;50.69;93286.69;5004325;28;20526;-77
2021/11/02 00:04:39;;;;;;;20.08;12.15;;;;;;;7.73;50.36;93288.97;5001902;28;20037;-77
2021/11/02 00:07:05;;;;;;;20.00;10.85;;;;;;;7.76;50.38;93313.28;5003032;28;20037;-76
2021/11/02 00:09:35;;;;;;;21.15;11.23;;;;;;;7.72;50.65;93313.09;5011364;28;20034;-76
2021/11/02 00:12:01;;;;;;;22.92;11.48;;;;;;;7.49;50.35;93254.16;4997841;28;20388;-77
2021/11/02 00:14:29;;;;;;;22.58;11.13;;;;;;;7.76;50.34;93294.75;5005111;28;20045;-77
2021/11/02 00:16:58;;;;;;;20.42;11.30;;;;;;;7.77;50.62;93322.78;5008271;28;20132;-77
2021/11/02 00:19:26;;;;;;;22.60;10.90;;;;;;;7.84;50.51;93315.16;5004008;28;20044;-77
2021/11/02 00:21:54;;;;;;;21.08;11.18;;;;;;;7.61;50.88;93307.28;5011505;28;20025;-77
2021/11/02 00:26:57;;;;;;;23.13;12.50;;;;;;;7.63;51.12;93313.03;5002040;28;20067;-76
2021/11/02 00:29:22;;;;;;;18.85;11.15;;;;;;;7.51;51.13;93302.25;5010204;28;20046;-78
2021/11/02 00:31:48;;;;;;;18.50;10.65;;;;;;;7.47;51.02;93288.09;5009969;28;20121;-78
2021/11/02 00:34:13;;;;;;;21.33;10.30;;;;;;;7.48;51.18;93294.16;5003698;28;20091;-77
2021/11/02 00:36:39;;;;;;;15.18;8.98;;;;;;;7.60;50.99;93292.47;5009709;28;20045;-77
2021/11/02 00:39:04;;;;;;;17.83;10.20;;;;;;;7.21;51.74;93268.69;5009616;28;20104;-77
2021/11/02 00:41:30;;;;;;;18.23;10.32;;;;;;;7.41;51.53;93302.53;5009227;28;20675;-77
2021/11/02 00:43:56;;;;;;;19.15;10.68;;;;;;;7.59;51.21;93293.56;5011689;28;20045;-78
2021/11/02 00:46:40;;;;;;;18.90;10.27;;;;;;;7.47;51.48;93282.78;5004994;28;20055;-76
2021/11/02 00:49:07;;;;;;;20.85;11.15;;;;;;;7.35;51.63;93258.00;5001861;28;20995;-77
2021/11/02 00:51:33;;;;;;;23.48;12.27;;;;;;;7.46;51.51;93265.34;5013704;28;20052;-77
2021/11/02 00:53:58;;;;;;;18.75;10.93;;;;;;;7.23;51.46;93234.78;5011881;28;20514;-78
2021/11/02 00:56:24;;;;;;;19.92;9.90;;;;;;;7.58;51.32;93278.75;5004786;28;20827;-77
2021/11/02 00:58:49;;;;;;;26.25;12.48;;;;;;;7.64;51.11;93277.53;5000837;28;21194;-77
2021/11/02 01:01:15;;;;;;;27.00;12.15;;;;;;;7.53;51.48;93270.97;5014262;28;20048;-76
2021/11/02 01:03:40;;;;;;;28.90;13.27;;;;;;;7.40;51.54;93245.41;5005734;28;20106;-76
2021/11/02 01:06:06;;;;;;;22.42;12.27;;;;;;;7.61;51.72;93272.09;5013951;28;20037;-76
2021/11/02 01:08:32;;;;;;;22.27;12.82;;;;;;;7.69;52.02;93285.34;5008011;28;20041;-78
2021/11/02 01:10:58;;;;;;;26.00;14.02;;;;;;;7.67;52.35;93276.94;5012169;28;20365;-76
2021/11/02 01:13:24;;;;;;;29.40;15.10;;;;;;;7.70;52.62;93278.97;5010168;28;20099;-78
2021/11/02 01:15:49;;;;;;;27.65;13.40;;;;;;;7.84;52.72;93292.09;5005025;28;20839;-77
2021/11/02 01:18:15;;;;;;;25.05;13.02;;;;;;;7.88;52.61;93297.56;5012005;28;20050;-78
2021/11/02 01:20:41;;;;;;;21.83;12.57;;;;;;;7.89;52.44;93288.53;5007663;28;20045;-78
2021/11/02 01:23:07;;;;;;;23.00;12.65;;;;;;;7.88;52.27;93276.38;5007501;28;20509;-76
2021/11/02 01:25:34;;;;;;;24.88;12.75;;;;;;;7.88;52.40;93271.09;5007683;28;20117;-78
2021/11/02 01:27:59;;;;;;;25.30;12.23;;;;;;;7.87;52.45;93258.97;5012100;28;20044;-78
2021/11/02 01:30:25;;;;;;;20.67;12.07;;;;;;;7.95;52.33;93271.44;5010491;28;20045;-77
2021/11/02 01:32:50;;;;;;;24.17;13.10;;;;;;;7.86;52.44;93262.69;5002843;28;20488;-77
2021/11/02 01:35:16;;;;;;;28.48;14.85;;;;;;;7.85;52.38;93245.25;5003263;28;20041;-77
2021/11/02 01:37:42;;;;;;;23.30;12.88;;;;;;;7.94;52.80;93272.50;5008707;28;20460;-77
2021/11/02 01:40:11;;;;;;;26.30;13.25;;;;;;;8.08;52.48;93275.78;5004365;28;20054;-78
2021/11/02 01:42:37;;;;;;;21.52;12.15;;;;;;;8.13;51.85;93259.75;5004958;28;20045;-77
2021/11/02 01:45:05;;;;;;;27.17;13.05;;;;;;;7.83;52.30;93242.09;5007049;28;20323;-78
2021/11/02 01:47:36;;;;;;;26.33;14.18;;;;;;;7.75;53.09;93251.59;5010091;28;20040;-78
2021/11/02 01:50:04;;;;;;;26.83;12.43;;;;;;;7.78;53.00;93261.56;5010335;28;20053;-77
2021/11/02 01:52:29;;;;;;;27.20;12.88;;;;;;;7.71;52.51;93224.16;5018961;28;20495;-78
2021/11/02 01:54:55;;;;;;;27.98;14.85;;;;;;;7.66;52.81;93232.25;5002239;28;20037;-76
2021/11/02 01:57:20;;;;;;;26.20;14.13;;;;;;;7.85;52.99;93239.94;5011254;28;20058;-77
2021/11/02 01:59:46;;;;;;;26.85;14.52;;;;;;;7.79;53.10;93225.28;5014271;28;20388;-78
2021/11/02 02:02:31;;;;;;;28.30;14.27;;;;;;;7.96;53.07;93243.88;4998617;28;20042;-77
2021/11/02 02:05:30;;;;;;;24.90;15.25;;;;;;;8.14;52.76;93226.88;5008617;28;20487;-77
2021/11/02 02:08:10;;;;;;;25.08;16.00;;;;;;;7.89;53.13;93219.69;5005313;28;20046;-77
2021/11/02 02:11:14;;;;;;;30.10;15.55;;;;;;;8.00;53.71;93226.25;5012460;28;20311;-77
2021/11/02 02:13:51;;;;;;;26.70;13.32;;;;;;;7.99;53.38;93193.69;4988708;28;20401;-78
2021/11/02 02:16:30;;;;;;;23.10;13.27;;;;;;;8.24;53.10;93215.97;5009004;28;20441;-76
2021/11/02 02:19:10;;;;;;;23.35;13.70;;;;;;;8.15;53.32;93213.34;5006610;28;20042;-77
2021/11/02 02:21:54;;;;;;;29.55;13.60;;;;;;;8.15;53.27;93204.63;5012977;28;20041;-77
2021/11/02 02:24:50;;;;;;;25.88;13.50;;;;;;;8.17;53.41;93207.72;5002711;28;20518;-76
2021/11/02 02:27:42;;;;;;;58.78;24.48;;;;;;;8.41;53.14;93218.63;5003652;28;20045;-78
2021/11/02 02:30:12;;;;;;;36.47;17.00;;;;;;;8.49;52.54;93207.25;5010817;28;20046;-78
2021/11/02 02:32:44;;;;;;;30.05;16.85;;;;;;;8.52;52.68;93195.22;5006441;28;20111;-78
2021/11/02 02:35:11;;;;;;;30.90;14.65;;;;;;;8.60;52.34;93178.53;5008381;28;20960;-77
2021/11/02 02:37:39;;;;;;;32.17;16.35;;;;;;;8.40;52.59;93166.72;5009723;28;20029;-77
2021/11/02 02:40:06;;;;;;;32.33;14.82;;;;;;;8.33;52.86;93163.78;5004141;28;20060;-77
2021/11/02 02:42:34;;;;;;;27.15;13.73;;;;;;;8.48;52.88;93183.69;5008909;28;20115;-77
2021/11/02 02:45:01;;;;;;;26.63;13.70;;;;;;;8.61;52.56;93176.69;5007300;28;21509;-77
2021/11/02 02:47:28;;;;;;;27.55;13.48;;;;;;;8.77;51.70;93177.69;5002645;28;20525;-78
2021/11/02 02:49:55;;;;;;;34.45;17.00;;;;;;;8.28;52.40;93150.69;5006667;28;20366;-78
2021/11/02 02:52:25;;;;;;;31.33;14.43;;;;;;;8.11;52.42;93126.88;5006360;28;20914;-77
2021/11/02 02:54:51;;;;;;;22.05;12.40;;;;;;;8.50;52.10;93174.34;5007252;28;20094;-76
2021/11/02 02:57:22;;;;;;;19.63;11.20;;;;;;;8.09;52.65;93166.91;5008392;28;20049;-75
2021/11/02 02:59:50;;;;;;;19.83;10.35;;;;;;;8.30;52.49;93188.25;5006861;28;20037;-77
2021/11/02 03:02:18;;;;;;;24.63;11.43;;;;;;;8.44;52.30;93188.06;5007294;28;20034;-76
2021/11/02 03:04:47;;;;;;;20.67;10.43;;;;;;;8.44;52.15;93183.56;5007192;28;20049;-77
2021/11/02 03:07:15;;;;;;;16.83;10.02;;;;;;;8.57;51.69;93192.41;5006266;28;20025;-76
2021/11/02 03:09:45;;;;;;;15.50;9.88;;;;;;;8.52;51.42;93189.91;5002480;28;20045;-76
2021/11/02 03:12:13;;;;;;;20.52;10.05;;;;;;;8.43;52.44;93176.69;5004437;28;20062;-77
2021/11/02 03:17:24;;;;;;;25.08;10.40;;;;;;;8.03;53.92;93160.22;5005676;28;20603;-77
2021/11/02 03:55:01;;;;;;;25.85;13.20;;;;;;;8.99;52.65;93104.00;5004206;28;20128;-78
2021/11/02 04:01:06;;;;;;;26.52;14.10;;;;;;;9.16;51.36;93073.19;4958740;28;20413;-78
2021/11/02 04:34:04;;;;;;;23.73;12.95;;;;;;;8.46;53.66;93093.91;5008310;28;20041;-77
2021/11/02 05:55:44;;;;;;;19.13;11.05;;;;;;;8.85;53.63;93042.44;4962691;28;20856;-77
2021/11/02 06:00:41;;;;;;;20.92;11.35;;;;;;;8.96;53.60;93045.50;5006780;28;20602;-77
2021/11/02 06:03:23;;;;;;;22.60;11.70;;;;;;;9.11;53.50;93074.16;5011116;28;20046;-76
2021/11/02 06:30:30;;;;;;;22.65;11.93;;;;;;;9.52;54.58;93062.03;5008524;28;20041;-79
2021/11/02 06:33:06;;;;;;;50.92;19.30;;;;;;;9.64;53.86;93065.53;5007082;28;20575;-78
2021/11/02 06:35:44;;;;;;;26.90;14.38;;;;;;;9.71;53.45;93065.00;5008615;28;20049;-78
2021/11/02 06:51:38;;;;;;;41.95;16.75;;;;;;;10.09;53.12;93051.53;5005115;28;20053;-76
2021/11/02 07:19:38;;;;;;;30.50;15.52;;;;;;;10.12;54.33;93053.56;5004467;28;20098;-77
2021/11/02 07:24:50;;;;;;;37.47;16.42;;;;;;;10.49;53.67;93057.09;5002903;28;20045;-77
2021/11/02 08:47:00;;;;;;;36.78;17.83;;;;;;;11.10;57.74;93063.97;5010506;28;20045;-76
2021/11/02 08:49:26;;;;;;;50.95;24.00;;;;;;;10.94;58.66;93071.09;5005634;28;20017;-78
2021/11/02 08:51:57;;;;;;;50.35;25.80;;;;;;;10.93;58.62;93064.22;5008543;28;20025;-76
2021/11/02 08:54:24;;;;;;;46.75;22.90;;;;;;;10.89;58.58;93058.00;5007832;28;21406;-77
2021/11/02 08:56:54;;;;;;;38.97;19.30;;;;;;;10.94;58.60;93073.75;5011179;28;20099;-77
2021/11/02 08:59:20;;;;;;;37.05;18.52;;;;;;;11.15;57.63;93058.44;5005259;28;20045;-77
2021/11/02 09:01:57;;;;;;;33.90;17.05;;;;;;;10.88;58.26;93056.47;5010757;28;20040;-78
2021/11/02 09:04:33;;;;;;;28.23;15.23;;;;;;;11.10;57.83;93073.88;5007674;28;20480;-78
2021/11/02 09:07:04;;;;;;;37.15;16.17;;;;;;;10.95;58.21;93064.69;5011898;28;20037;-77
2021/11/02 09:09:42;;;;;;;34.83;17.33;;;;;;;10.91;58.25;93065.66;5002589;28;20495;-78
2021/11/02 09:12:09;;;;;;;30.45;16.05;;;;;;;11.21;57.87;93087.47;5003043;28;20045;-78
2021/11/02 09:14:39;;;;;;;41.80;20.30;;;;;;;11.11;57.96;93073.53;5010139;28;20142;-78
2021/11/02 09:17:06;;;;;;;39.28;18.40;;;;;;;11.01;57.89;93075.84;5004082;28;20077;-78
2021/11/02 09:19:35;;;;;;;36.08;18.13;;;;;;;10.62;59.16;93040.03;5011481;28;20029;-77
2021/11/02 09:22:02;;;;;;;35.88;18.95;;;;;;;10.73;59.73;93073.06;5000927;28;20040;-78
2021/11/02 09:24:29;;;;;;;32.53;18.20;;;;;;;10.75;59.41;93049.59;5002991;28;20285;-78
2021/11/02 09:26:54;;;;;;;33.13;17.40;;;;;;;10.81;59.14;93058.88;5006604;28;21003;-78
2021/11/02 09:29:20;;;;;;;32.50;15.57;;;;;;;11.10;59.17;93069.31;5000074;28;20045;-78
2021/11/02 09:31:46;;;;;;;35.67;18.50;;;;;;;10.97;59.82;93081.06;5011074;28;20160;-77
2021/11/02 09:34:12;;;;;;;37.75;19.77;;;;;;;11.08;59.10;93076.06;5005020;28;20041;-77
2021/11/02 09:36:42;;;;;;;38.17;19.42;;;;;;;10.12;63.77;93080.88;5002031;28;20042;-77
2021/11/02 09:39:13;;;;;;;33.42;19.33;;;;;;;9.83;64.59;93049.13;5015229;28;20137;-78
2021/11/02 09:42:04;;;;;;;37.55;19.25;;;;;;;9.27;68.35;93061.13;5005246;28;20037;-76
2021/11/02 09:45:01;;;;;;;34.42;16.40;;;;;;;9.27;67.91;93042.53;5003316;28;20262;-77
2021/11/02 09:47:48;;;;;;;37.72;19.13;;;;;;;8.59;71.96;93041.81;5006475;28;20307;-77
2021/11/02 09:50:33;;;;;;;40.53;18.75;;;;;;;8.04;73.89;93034.66;5005742;28;20160;-76
2021/11/02 09:53:16;;;;;;;43.60;19.08;;;;;;;8.10;73.69;93027.34;5018479;28;21637;-76
2021/11/02 09:56:12;;;;;;;31.13;14.60;;;;;;;7.15;77.06;93008.09;5001633;28;20644;-78
2021/11/02 09:58:58;;;;;;;28.20;15.25;;;;;;;7.58;77.04;93040.59;5009226;28;20061;-75
2021/11/02 10:01:41;;;;;;;29.30;12.98;;;;;;;7.64;76.57;93033.28;5006742;28;20024;-77
2021/11/02 10:04:15;;;;;;;26.05;12.57;;;;;;;7.66;76.77;93034.56;5005868;28;20496;-77
2021/11/02 10:06:57;;;;;;;30.33;14.27;;;;;;;7.75;76.55;93016.03;5002936;28;20074;-77
2021/11/02 10:09:45;;;;;;;21.90;12.27;;;;;;;8.43;74.24;92999.16;5005429;28;20033;-76
2021/11/02 10:12:26;;;;;;;23.98;13.70;;;;;;;9.11;71.28;93005.19;5005412;28;20522;-76
2021/11/02 10:15:01;;;;;;;24.40;10.43;;;;;;;9.47;69.29;93006.50;5000390;28;20137;-76
2021/11/02 10:17:31;;;;;;;;;;;;;;;9.52;68.51;93012.38;5020724;28;20038;-76
2021/11/02 10:20:10;;;;;;;23.98;11.40;;;;;;;9.67;67.48;93011.00;5001333;28;20014;-75
2021/11/02 10:22:55;;;;;;;22.98;12.05;;;;;;;9.74;67.17;92984.69;5005051;28;20034;-76
2021/11/02 10:25:42;;;;;;;21.52;11.05;;;;;;;9.02;70.04;92975.28;5004746;28;20041;-76
2021/11/02 10:28:34;;;;;;;23.27;9.60;;;;;;;9.51;68.77;93002.09;5003873;28;20033;-77
2021/11/02 10:31:02;;;;;;;20.17;10.07;;;;;;;9.65;68.08;93015.84;5005907;28;20510;-77
2021/11/02 10:33:33;;;;;;;20.00;10.20;;;;;;;9.62;66.45;93003.25;5004575;28;20045;-75
2021/11/02 10:36:11;;;;;;;17.15;9.07;;;;;;;9.39;68.04;92994.84;5010221;28;20033;-77
2021/11/02 10:38:49;;;;;;;20.23;9.13;;;;;;;9.43;68.00;92980.63;5003626;28;20157;-78
2021/11/02 10:41:19;;;;;;;17.58;9.50;;;;;;;9.30;68.59;92976.34;5011614;28;20221;-77
2021/11/02 10:44:17;;;;;;;16.75;9.15;;;;;;;8.79;70.30;92972.16;5003203;28;20041;-77
2021/11/02 10:47:08;;;;;;;25.23;10.93;;;;;;;9.18;69.69;92962.25;5007421;28;20114;-77
2021/11/02 10:49:36;;;;;;;20.70;10.27;;;;;;;9.69;68.16;92988.31;5000061;28;20036;-78
2021/11/02 10:52:05;;;;;;;26.65;12.13;;;;;;;9.92;66.54;92980.78;5007452;28;20029;-77
2021/11/02 10:54:48;;;;;;;29.17;13.70;;;;;;;10.04;66.71;92961.41;5000019;28;20045;-78
2021/11/02 10:57:33;;;;;;;26.05;13.70;;;;;;;10.09;66.05;92975.28;5002986;28;20037;-78
2021/11/02 11:00:05;;;;;;;27.90;13.80;;;;;;;9.96;66.18;92955.09;5000122;28;20053;-78
2021/11/02 11:02:31;;;;;;;31.10;15.55;;;;;;;10.15;65.47;92981.94;5003360;28;20435;-77
2021/11/02 11:05:03;;;;;;;29.92;15.10;;;;;;;10.07;65.49;92969.53;5020384;28;20038;-78
2021/11/02 11:07:41;;;;;;;32.55;15.38;;;;;;;10.18;65.31;92973.28;5003550;28;20029;-78
2021/11/02 11:10:09;;;;;;;39.58;16.17;;;;;;;10.06;66.71;92991.88;5004205;28;20038;-77
2021/11/02 11:12:54;;;;;;;29.60;15.23;;;;;;;10.26;65.59;92985.72;5002173;28;20066;-78
2021/11/02 11:15:20;;;;;;;26.15;11.82;;;;;;;10.31;64.91;92972.22;5001315;28;20044;-79
2021/11/02 11:17:50;;;;;;;22.98;11.43;;;;;;;10.64;63.64;92990.75;5002382;28;20623;-77
2021/11/02 11:20:17;;;;;;;23.52;13.27;;;;;;;10.81;62.92;92978.34;5002214;28;20375;-77
2021/11/02 11:22:45;;;;;;;29.08;13.00;;;;;;;10.57;62.55;92963.16;5002588;28;20048;-76
2021/11/02 11:25:25;;;;;;;24.60;12.25;;;;;;;10.71;63.09;92982.19;5000363;28;20029;-78
2021/11/02 11:27:56;;;;;;;23.42;10.85;;;;;;;10.86;62.57;92978.88;5008330;28;20049;-77
2021/11/02 11:30:26;;;;;;;24.20;11.65;;;;;;;10.62;62.38;92945.09;4998524;28;20464;-79
2021/11/02 11:32:53;;;;;;;17.88;10.18;;;;;;;10.44;64.17;92958.94;5011222;28;20301;-78
2021/11/02 11:35:18;;;;;;;21.40;10.02;;;;;;;10.48;64.63;92978.44;4998284;28;20660;-78
2021/11/02 11:37:47;;;;;;;19.35;10.10;;;;;;;10.69;63.98;92977.22;5000436;28;20046;-77
2021/11/02 11:40:18;;;;;;;29.77;16.40;;;;;;;10.73;63.61;92972.78;4999388;28;20664;-77
2021/11/02 11:42:49;;;;;;;28.67;14.55;;;;;;;10.99;62.23;92983.09;5000373;28;20249;-76
2021/11/02 11:45:18;;;;;;;23.08;12.20;;;;;;;10.97;62.48;92971.97;5004246;28;20636;-76
2021/11/02 11:47:44;;;;;;;23.77;11.90;;;;;;;10.98;62.57;92972.75;5002996;28;20594;-77
2021/11/02 11:50:28;;;;;;;26.45;12.52;;;;;;;10.98;61.79;92959.47;5006279;28;20125;-77
2021/11/02 11:52:56;;;;;;;30.70;14.23;;;;;;;10.85;62.20;92948.09;4998686;28;20053;-77
2021/11/02 11:55:26;;;;;;;23.23;11.98;;;;;;;11.08;62.18;92973.09;4998458;28;20028;-76
2021/11/02 11:58:14;;;;;;;23.45;12.18;;;;;;;11.21;61.23;92954.41;4997765;28;20037;-78
2021/11/02 12:00:51;;;;;;;21.40;12.55;;;;;;;10.82;62.46;92938.09;4999174;28;20539;-77
2021/11/02 12:03:42;;;;;;;19.60;10.45;;;;;;;10.94;62.29;92959.38;4997756;28;20041;-77
2021/11/02 12:06:50;;;;;;;16.73;9.75;;;;;;;11.07;61.43;92949.47;5000139;28;20408;-78
2021/11/02 12:09:22;;;;;;;22.10;10.82;;;;;;;11.08;62.74;92962.44;4974752;28;20065;-78
2021/11/02 12:11:50;;;;;;;21.55;10.10;;;;;;;11.02;63.09;92957.69;5005978;28;20328;-77
2021/11/02 12:14:24;;;;;;;16.90;11.18;;;;;;;10.88;64.53;92939.41;5004862;28;20069;-77
2021/11/02 12:16:50;;;;;;;20.15;10.48;;;;;;;11.08;62.81;92930.50;5005709;28;20128;-78
2021/11/02 12:19:22;;;;;;;19.27;10.98;;;;;;;11.06;63.76;92955.88;5010493;28;20026;-77
2021/11/02 12:22:00;;;;;;;23.67;10.40;;;;;;;11.19;62.83;92946.78;5009472;28;20156;-78
2021/11/02 12:24:32;;;;;;;19.38;11.05;;;;;;;11.33;62.93;92947.19;5014229;28;20431;-78
2021/11/02 12:27:09;;;;;;;20.08;10.75;;;;;;;11.30;62.78;92939.06;5009475;28;20034;-76
2021/11/02 12:29:37;;;;;;;22.02;11.20;;;;;;;11.19;63.38;92944.13;5010791;28;20034;-77
2021/11/02 12:32:05;;;;;;;24.25;10.90;;;;;;;11.41;62.28;92948.13;5009412;28;20049;-77
2021/11/02 12:34:57;;;;;;;17.27;9.50;;;;;;;11.32;61.72;92950.94;5010607;28;20391;-76
2021/11/02 12:37:24;;;;;;;16.85;10.40;;;;;;;11.08;62.40;92935.84;5010091;28;20042;-76
2021/11/02 12:39:50;;;;;;;17.95;10.00;;;;;;;10.99;62.38;92932.53;5013214;28;20060;-76
2021/11/02 12:42:20;;;;;;;20.00;10.18;;;;;;;11.17;62.92;92943.69;5006495;28;20046;-77
2021/11/02 12:44:49;;;;;;;17.23;10.10;;;;;;;11.16;64.01;92948.22;5006700;28;20034;-77
2021/11/02 12:47:20;;;;;;;17.05;10.40;;;;;;;10.71;64.86;92889.91;5003202;28;20136;-75
2021/11/02 12:49:55;;;;;;;14.07;8.60;;;;;;;11.17;64.90;92939.13;5004540;28;20050;-77
2021/11/02 12:52:25;;;;;;;15.70;9.23;;;;;;;11.37;64.12;92941.94;5007414;28;20037;-77
2021/11/02 12:55:23;;;;;;;13.85;7.10;;;;;;;11.54;63.73;92955.78;5006104;28;20649;-78
2021/11/02 12:57:54;;;;;;;16.45;8.80;;;;;;;11.62;63.64;92947.97;5012720;28;20057;-76
2021/11/02 13:00:27;;;;;;;99.03;23.17;;;;;;;11.09;66.32;92931.28;5011617;28;20041;-78
2021/11/02 13:03:05;;;;;;;14.38;7.68;;;;;;;11.34;64.62;92932.00;5015043;28;20396;-76
2021/11/02 13:05:31;;;;;;;14.45;7.60;;;;;;;11.59;63.38;92952.88;5016208;28;20407;-77
2021/11/02 13:08:09;;;;;;;9.82;6.85;;;;;;;11.73;62.27;92947.16;5015622;28;20463;-77
2021/11/02 13:10:39;;;;;;;13.57;7.97;;;;;;;11.64;63.17;92940.44;5019077;28;20635;-77
2021/11/02 13:13:16;;;;;;;15.55;8.38;;;;;;;11.72;62.92;92948.28;5017908;28;20089;-77
2021/11/02 13:15:53;;;;;;;13.07;8.80;;;;;;;11.21;65.01;92936.56;5017096;28;20034;-76
2021/11/02 13:18:39;;;;;;;13.77;8.80;;;;;;;11.37;65.22;92952.59;5013677;28;20314;-77
2021/11/02 13:21:22;;;;;;;12.40;8.40;;;;;;;11.50;65.00;92951.44;5019648;28;20045;-75
2021/11/02 13:23:57;;;;;;;10.98;7.30;;;;;;;11.52;63.94;92950.03;5014877;28;20736;-77
2021/11/02 13:26:23;;;;;;;18.80;8.68;;;;;;;11.70;63.60;92953.16;5013486;28;20037;-76
2021/11/02 13:28:50;;;;;;;15.85;8.82;;;;;;;11.79;63.76;92943.13;5017342;28;20050;-76
2021/11/02 13:31:29;;;;;;;13.60;8.27;;;;;;;11.69;63.21;92958.81;5013756;28;20033;-78
2021/11/02 13:34:02;;;;;;;15.20;8.02;;;;;;;11.91;63.71;92953.72;5012544;28;20101;-77
2021/11/02 13:36:28;;;;;;;11.93;8.18;;;;;;;11.39;63.58;92924.53;5018877;28;20644;-77
2021/11/02 13:39:09;;;;;;;18.17;9.70;;;;;;;11.85;63.60;92948.97;5012530;28;20049;-76
2021/11/02 13:41:37;;;;;;;15.23;8.57;;;;;;;11.66;63.18;92941.63;5010431;28;20101;-78
2021/11/02 13:44:06;;;;;;;12.80;8.57;;;;;;;11.51;63.34;92937.81;5028161;28;20048;-76
2021/11/02 13:46:37;;;;;;;19.25;11.20;;;;;;;11.96;62.69;92953.47;5011639;28;20595;-75
2021/11/02 13:49:05;;;;;;;19.58;9.68;;;;;;;12.01;62.78;92955.88;5012643;28;20040;-75
2021/11/02 13:51:31;;;;;;;13.68;8.57;;;;;;;12.02;61.71;92959.34;5009516;28;20564;-76
2021/11/02 13:53:57;;;;;;;15.85;9.02;;;;;;;11.81;62.39;92964.88;5008869;28;20113;-76
2021/11/02 13:56:30;;;;;;;18.55;10.10;;;;;;;12.16;62.89;92980.22;5005841;28;20048;-75
2021/11/02 13:58:57;;;;;;;15.00;8.40;;;;;;;12.30;61.35;92975.25;5021298;28;20045;-75
2021/11/02 14:01:49;;;;;;;18.52;10.27;;;;;;;12.19;62.01;92967.00;5015584;28;20048;-76
2021/11/02 14:04:36;;;;;;;17.05;9.63;;;;;;;12.15;62.44;92968.78;5015288;28;20052;-77
2021/11/02 14:07:14;;;;;;;17.02;9.68;;;;;;;11.95;63.38;92973.25;5014345;28;20136;-77
2021/11/02 14:09:43;;;;;;;16.08;8.93;;;;;;;12.03;62.93;92963.53;5013150;28;20377;-76
2021/11/02 14:12:27;;;;;;;18.55;10.77;;;;;;;11.98;63.63;92964.56;5019808;28;20499;-77
2021/11/02 14:15:11;;;;;;;18.65;11.07;;;;;;;12.12;62.97;92955.38;5011938;28;20049;-77
2021/11/02 14:17:52;;;;;;;17.65;9.68;;;;;;;12.18;61.79;92960.09;5008707;28;20113;-77
2021/11/02 14:20:32;;;;;;;17.75;10.35;;;;;;;11.68;63.44;92959.94;5012995;28;20368;-75
2021/11/02 14:23:01;;;;;;;16.80;9.95;;;;;;;11.93;62.94;92950.72;5014081;28;20040;-77
2021/11/02 14:25:36;;;;;;;18.38;11.15;;;;;;;11.88;62.62;92927.75;5008741;28;20156;-76
2021/11/02 14:28:02;;;;;;;19.95;12.95;;;;;;;12.04;62.81;92965.84;5013557;28;20032;-77
2021/11/02 14:30:30;;;;;;;20.77;11.23;;;;;;;11.95;63.02;92964.47;5012246;28;20495;-77
2021/11/02 14:32:56;;;;;;;21.88;12.90;;;;;;;12.10;62.57;92970.94;5029346;28;20034;-76
2021/11/02 14:35:38;;;;;;;23.23;14.35;;;;;;;11.90;63.65;92976.16;5017825;28;20076;-76
2021/11/02 14:38:10;;;;;;;22.25;13.38;;;;;;;11.91;64.02;92963.59;5014354;28;20046;-75
2021/11/02 14:40:38;;;;;;;24.77;13.93;;;;;;;11.86;62.99;92953.97;5013620;28;20045;-77
2021/11/02 14:43:12;;;;;;;54.67;22.88;;;;;;;12.04;62.51;92981.06;5010334;28;20878;-77
2021/11/02 14:45:55;;;;;;;36.00;17.92;;;;;;;11.96;62.87;92977.47;5014899;28;20072;-77
2021/11/02 14:48:27;;;;;;;51.88;21.23;;;;;;;12.01;62.51;92971.09;5009548;28;20128;-77
2021/11/02 14:51:13;;;;;;;51.53;22.02;;;;;;;11.89;62.38;92953.28;5012191;28;20037;-77
2021/11/02 14:53:43;;;;;;;52.55;24.88;;;;;;;12.02;62.02;92968.09;5010541;28;20092;-78
2021/11/02 14:56:28;;;;;;;48.92;20.58;;;;;;;11.97;61.87;92976.34;5014347;28;20072;-76
2021/11/02 14:58:59;;;;;;;25.60;12.68;;;;;;;12.05;61.40;92982.63;5014336;28;20030;-77
2021/11/02 15:01:33;;;;;;;29.42;13.63;;;;;;;11.97;61.15;92989.66;5016614;28;20034;-75
2021/11/02 15:04:13;;;;;;;34.85;17.65;;;;;;;11.93;61.00;92993.34;5028796;28;20032;-76
2021/11/02 15:06:58;;;;;;;32.55;15.60;;;;;;;11.74;61.55;92983.31;5010311;28;20518;-77
2021/11/02 15:09:27;;;;;;;33.28;16.88;;;;;;;11.57;61.77;92957.78;5012317;28;20045;-77
2021/11/02 15:11:54;;;;;;;29.63;14.80;;;;;;;11.70;61.88;92995.78;5011987;28;20444;-76
2021/11/02 15:14:35;;;;;;;25.40;14.85;;;;;;;11.67;61.42;92982.38;5014373;28;20049;-77
2021/11/02 15:17:05;;;;;;;24.35;12.82;;;;;;;11.57;61.83;92992.38;5005422;28;20037;-77
2021/11/02 15:19:33;;;;;;;26.13;12.73;;;;;;;11.56;61.56;92979.41;5013857;28;20080;-76
2021/11/02 15:22:00;;;;;;;19.55;13.38;;;;;;;11.56;61.78;92990.06;5005829;28;20501;-75
2021/11/02 15:24:32;;;;;;;17.00;10.98;;;;;;;11.48;60.96;92986.41;5010144;28;20198;-77
2021/11/02 15:27:00;;;;;;;17.38;10.40;;;;;;;11.47;61.04;93000.03;5009542;28;20041;-75
2021/11/02 15:29:48;;;;;;;15.43;9.60;;;;;;;11.42;60.53;92997.63;5009844;28;20599;-76
2021/11/02 15:32:18;;;;;;;17.75;8.95;;;;;;;11.29;61.20;92993.44;5008418;28;20041;-78
2021/11/02 15:34:59;;;;;;;13.40;8.63;;;;;;;11.27;60.99;92985.78;5016116;28;20037;-77
2021/11/02 15:37:33;;;;;;;21.60;12.13;;;;;;;11.26;60.45;92999.44;5018507;28;20026;-76
2021/11/02 15:40:12;;;;;;;17.00;9.68;;;;;;;11.13;60.78;93007.44;5015727;28;20037;-75
2021/11/02 15:42:50;;;;;;;13.77;8.50;;;;;;;11.01;60.79;93004.78;5009148;28;20030;-77
2021/11/02 15:45:25;;;;;;;14.88;9.13;;;;;;;10.90;60.44;92986.97;5017738;28;20038;-77
2021/11/02 15:47:53;;;;;;;18.02;8.90;;;;;;;11.03;60.01;93002.59;5011227;28;20036;-76
2021/11/02 15:50:24;;;;;;;15.25;9.30;;;;;;;11.07;59.24;92994.69;5004732;28;20033;-76
2021/11/02 15:53:00;;;;;;;11.57;7.95;;;;;;;10.92;59.73;92980.19;5010544;28;20038;-76
2021/11/02 15:55:27;;;;;;;15.50;9.88;;;;;;;10.92;59.73;92990.84;5007234;28;20037;-76
2021/11/02 15:57:57;;;;;;;18.63;11.95;;;;;;;10.61;59.62;92938.22;5001254;28;20095;-77
2021/11/02 16:00:29;;;;;;;21.70;11.65;;;;;;;10.94;59.36;92979.88;5013743;28;20092;-77
2021/11/02 16:02:55;;;;;;;18.15;10.23;;;;;;;10.93;59.00;93003.03;5011112;28;20525;-77
2021/11/02 16:05:27;;;;;;;18.77;11.57;;;;;;;10.81;58.89;92995.06;5008835;28;20097;-78
2021/11/02 16:07:54;;;;;;;16.30;11.98;;;;;;;10.77;58.90;92994.16;5008893;28;20462;-76
2021/11/02 16:10:25;;;;;;;20.38;11.25;;;;;;;10.98;58.38;93010.00;5003632;28;20025;-77
2021/11/02 16:12:51;;;;;;;16.23;9.13;;;;;;;10.76;58.50;93005.16;5010092;28;20049;-76
2021/11/02 16:15:31;;;;;;;15.48;8.63;;;;;;;10.85;57.84;93025.22;5002064;28;23561;-76
2021/11/02 16:18:14;;;;;;;12.50;8.27;;;;;;;10.75;58.45;93030.97;5012711;28;20685;-76
2021/11/02 16:20:41;;;;;;;15.23;7.82;;;;;;;10.60;58.92;93023.66;5003905;28;20041;-76
2021/11/02 16:23:14;;;;;;;13.23;6.13;;;;;;;10.66;59.46;93032.97;5003571;28;20037;-76
2021/11/02 16:25:53;;;;;;;12.43;7.15;;;;;;;10.52;60.05;93035.16;5004109;28;20052;-76
2021/11/02 16:28:31;;;;;;;15.00;7.15;;;;;;;10.45;60.43;93024.31;5000894;28;20738;-78
2021/11/02 16:30:58;;;;;;;11.25;7.00;;;;;;;10.50;60.69;93040.03;5001366;28;21505;-77
2021/11/02 16:33:35;;;;;;;10.45;6.30;;;;;;;10.37;60.69;93041.88;5006836;28;20038;-76
2021/11/02 16:36:41;;;;;;;8.75;6.20;;;;;;;10.51;59.22;93047.69;5006104;28;20045;-76
2021/11/02 16:39:19;;;;;;;11.52;6.88;;;;;;;10.34;59.40;93039.88;4971940;28;20046;-76
2021/11/02 16:41:47;;;;;;;10.57;6.00;;;;;;;10.28;59.92;93047.28;5009723;28;20064;-77
2021/11/02 16:44:16;;;;;;;10.07;6.68;;;;;;;10.30;59.85;93037.09;5005195;28;20096;-76
2021/11/02 16:46:46;;;;;;;10.63;6.60;;;;;;;10.32;60.08;93045.50;5006195;28;20034;-77
2021/11/02 16:49:28;;;;;;;10.30;5.75;;;;;;;10.27;60.10;93056.34;5016113;28;20018;-78
2021/11/02 16:52:01;;;;;;;8.02;5.88;;;;;;;10.39;59.18;93052.19;5003748;28;20130;-76